createdAt,value
2018-05-02T00:00:55.342Z,100936.58
2018-05-02T00:01:59.525Z,100937.36
2018-05-02T00:03:04.452Z,100938.28
2018-05-02T00:04:09.372Z,100935.28
2018-05-02T00:05:13.525Z,100934.02
2018-05-02T00:06:18.101Z,100937.46
2018-05-02T00:07:23.021Z,100931.92
2018-05-02T00:08:27.940Z,100929.34
2018-05-02T00:09:32.096Z,100930.73
2018-05-02T00:10:36.270Z,100926.00
2018-05-02T00:11:40.449Z,100928.55
2018-05-02T00:12:44.605Z,100924.72
2018-05-02T00:13:49.521Z,100923.45
2018-05-02T00:14:53.728Z,100923.42
2018-05-02T00:15:57.891Z,100927.23
2018-05-02T00:17:02.050Z,100918.80
2018-05-02T00:18:06.271Z,100921.39
2018-05-02T00:19:11.498Z,100920.96
2018-05-02T00:20:16.445Z,100923.47
2018-05-02T00:21:20.601Z,100923.45
2018-05-02T00:22:25.122Z,100924.74
2018-05-02T00:23:29.285Z,100927.29
2018-05-02T00:24:33.451Z,100921.80
2018-05-02T00:25:37.686Z,100919.31
2018-05-02T00:26:42.613Z,100919.41
2018-05-02T00:27:47.889Z,100916.86
2018-05-02T00:28:52.800Z,100915.56
2018-05-02T00:29:56.966Z,100917.36
2018-05-02T00:31:01.121Z,100915.69
2018-05-02T00:32:05.336Z,100914.39
2018-05-02T00:33:09.519Z,100918.77
2018-05-02T00:34:14.482Z,100911.55
2018-05-02T00:35:18.641Z,100915.39
2018-05-02T00:36:22.803Z,100911.58
2018-05-02T00:37:26.956Z,100914.11
2018-05-02T00:38:31.179Z,100916.22
2018-05-02T00:39:35.329Z,100913.34
2018-05-02T00:40:39.501Z,100917.17
2018-05-02T00:41:44.426Z,100915.48
2018-05-02T00:42:49.366Z,100918.05
2018-05-02T00:43:54.312Z,100914.61
2018-05-02T00:44:58.472Z,100915.04
2018-05-02T00:46:02.674Z,100919.30
2018-05-02T00:47:06.839Z,100912.23
2018-05-02T00:48:10.998Z,100915.25
2018-05-02T00:49:17.861Z,100915.19
2018-05-02T00:50:22.017Z,100913.91
2018-05-02T00:51:27.140Z,100915.30
2018-05-02T00:52:32.073Z,100908.52
2018-05-02T00:53:37.017Z,100912.31
2018-05-02T00:54:41.178Z,100907.26
2018-05-02T00:55:45.332Z,100902.17
2018-05-02T00:56:49.509Z,100908.58
2018-05-02T00:57:53.677Z,100906.02
2018-05-02T00:58:57.842Z,100904.77
2018-05-02T01:00:02.779Z,100909.49
2018-05-02T01:01:07.710Z,100906.11
2018-05-02T01:02:12.673Z,100907.41
2018-05-02T01:03:16.846Z,100902.28
2018-05-02T01:04:21.763Z,100905.66
2018-05-02T01:05:27.106Z,100909.92
2018-05-02T01:06:32.035Z,100908.64
2018-05-02T01:07:36.958Z,100905.27
2018-05-02T01:08:41.877Z,100905.71
2018-05-02T01:09:46.796Z,100905.72
2018-05-02T01:10:50.993Z,100911.70
2018-05-02T01:11:55.162Z,100911.74
2018-05-02T01:12:59.315Z,100914.70
2018-05-02T01:14:03.482Z,100914.36
2018-05-02T01:15:07.641Z,100913.09
2018-05-02T01:16:11.847Z,100919.90
2018-05-02T01:17:16.013Z,100915.64
2018-05-02T01:18:20.217Z,100916.48
2018-05-02T01:19:24.384Z,100916.89
2018-05-02T01:20:28.544Z,100915.22
2018-05-02T01:21:32.706Z,100916.53
2018-05-02T01:22:36.866Z,100914.41
2018-05-02T01:23:41.041Z,100915.70
2018-05-02T01:24:45.960Z,100914.41
2018-05-02T01:25:50.912Z,100917.43
2018-05-02T01:26:55.081Z,100915.73
2018-05-02T01:27:59.242Z,100915.33
2018-05-02T01:29:03.397Z,100919.55
2018-05-02T01:30:07.601Z,100924.73
2018-05-02T01:31:11.761Z,100916.18
2018-05-02T01:32:15.921Z,100920.02
2018-05-02T01:33:20.084Z,100926.83
2018-05-02T01:34:24.258Z,100927.30
2018-05-02T01:35:28.438Z,100926.48
2018-05-02T01:36:32.597Z,100924.39
2018-05-02T01:37:37.517Z,100923.12
2018-05-02T01:38:42.475Z,100930.77
2018-05-02T01:39:46.629Z,100918.44
2018-05-02T01:40:50.784Z,100925.69
2018-05-02T01:41:54.966Z,100929.22
2018-05-02T01:42:59.593Z,100925.77
2018-05-02T01:44:04.516Z,100925.75
2018-05-02T01:45:08.675Z,100923.18
2018-05-02T01:46:12.837Z,100922.41
2018-05-02T01:47:17.784Z,100924.95
2018-05-02T01:48:21.995Z,100924.48
2018-05-02T01:49:26.923Z,100927.02
2018-05-02T01:50:31.865Z,100923.20
2018-05-02T01:51:36.019Z,100922.76
2018-05-02T01:52:40.242Z,100925.31
2018-05-02T01:53:44.429Z,100927.94
2018-05-02T01:54:49.180Z,100926.66
2018-05-02T01:55:54.133Z,100925.85
2018-05-02T01:56:59.066Z,100922.04
2018-05-02T01:58:03.246Z,100920.38
2018-05-02T01:59:07.400Z,100919.03
2018-05-02T02:00:11.581Z,100926.69
2018-05-02T02:01:16.535Z,100924.22
2018-05-02T02:02:20.725Z,100930.58
2018-05-02T02:03:25.640Z,100925.08
2018-05-02T02:04:30.556Z,100931.03
2018-05-02T02:05:35.184Z,100933.58
2018-05-02T02:06:40.141Z,100929.83
2018-05-02T02:07:44.302Z,100931.50
2018-05-02T02:08:48.465Z,100933.59
2018-05-02T02:09:52.624Z,100930.27
2018-05-02T02:10:57.271Z,100928.56
2018-05-02T02:12:02.185Z,100934.92
2018-05-02T02:13:07.112Z,100928.56
2018-05-02T02:14:12.779Z,100924.75
2018-05-02T02:15:16.941Z,100923.91
2018-05-02T02:16:21.875Z,100929.83
2018-05-02T02:17:26.054Z,100931.56
2018-05-02T02:18:30.209Z,100929.45
2018-05-02T02:19:34.360Z,100934.49
2018-05-02T02:20:38.518Z,100940.01
2018-05-02T02:21:42.859Z,100936.56
2018-05-02T02:22:47.780Z,100932.77
2018-05-02T02:23:52.714Z,100938.73
2018-05-02T02:24:57.641Z,100937.01
2018-05-02T02:26:02.561Z,100932.76
2018-05-02T02:27:07.509Z,100936.14
2018-05-02T02:28:11.684Z,100935.76
2018-05-02T02:29:15.845Z,100940.92
2018-05-02T02:30:20.012Z,100933.73
2018-05-02T02:31:24.950Z,100939.66
2018-05-02T02:32:29.911Z,100940.92
2018-05-02T02:33:34.077Z,100937.12
2018-05-02T02:34:38.245Z,100935.09
2018-05-02T02:35:42.400Z,100939.36
2018-05-02T02:36:47.341Z,100938.92
2018-05-02T02:37:51.529Z,100935.14
2018-05-02T02:38:56.485Z,100928.28
2018-05-02T02:40:00.708Z,100937.17
2018-05-02T02:41:04.865Z,100930.37
2018-05-02T02:42:09.116Z,100932.90
2018-05-02T02:43:14.051Z,100935.00
2018-05-02T02:44:18.219Z,100929.02
2018-05-02T02:45:22.405Z,100934.93
2018-05-02T02:46:26.566Z,100928.17
2018-05-02T02:47:31.512Z,100926.45
2018-05-02T02:48:35.675Z,100931.10
2018-05-02T02:49:39.893Z,100927.66
2018-05-02T02:50:44.049Z,100933.20
2018-05-02T02:51:48.201Z,100928.10
2018-05-02T02:52:52.364Z,100933.22
2018-05-02T02:53:56.544Z,100929.38
2018-05-02T02:55:01.917Z,100933.22
2018-05-02T02:56:06.092Z,100931.48
2018-05-02T02:57:11.031Z,100928.49
2018-05-02T02:58:15.965Z,100923.40
2018-05-02T02:59:20.134Z,100922.19
2018-05-02T03:00:24.359Z,100921.80
2018-05-02T03:01:28.522Z,100919.70
2018-05-02T03:02:32.668Z,100923.09
2018-05-02T03:03:36.834Z,100919.66
2018-05-02T03:04:41.020Z,100920.55
2018-05-02T03:05:46.052Z,100918.00
2018-05-02T03:06:50.224Z,100915.06
2018-05-02T03:07:54.386Z,100913.36
2018-05-02T03:08:58.562Z,100916.29
2018-05-02T03:10:03.619Z,100915.89
2018-05-02T03:11:08.025Z,100915.46
2018-05-02T03:12:12.193Z,100909.17
2018-05-02T03:13:16.356Z,100911.70
2018-05-02T03:14:20.531Z,100915.52
2018-05-02T03:15:24.688Z,100906.56
2018-05-02T03:16:28.889Z,100912.09
2018-05-02T03:17:33.085Z,100908.66
2018-05-02T03:18:37.249Z,100907.81
2018-05-02T03:19:41.404Z,100903.59
2018-05-02T03:20:45.622Z,100904.44
2018-05-02T03:21:49.793Z,100907.42
2018-05-02T03:22:53.978Z,100908.69
2018-05-02T03:23:58.142Z,100904.83
2018-05-02T03:25:02.345Z,100909.09
2018-05-02T03:26:07.282Z,100907.81
2018-05-02T03:27:12.210Z,100901.87
2018-05-02T03:28:16.374Z,100900.19
2018-05-02T03:29:20.552Z,100901.89
2018-05-02T03:30:24.713Z,100901.88
2018-05-02T03:31:28.890Z,100903.17
2018-05-02T03:32:33.049Z,100898.52
2018-05-02T03:33:37.973Z,100894.31
2018-05-02T03:34:42.925Z,100890.89
2018-05-02T03:35:47.080Z,100895.58
2018-05-02T03:36:51.292Z,100896.42
2018-05-02T03:37:55.459Z,100894.34
2018-05-02T03:38:59.657Z,100892.67
2018-05-02T03:40:03.834Z,100895.23
2018-05-02T03:41:08.075Z,100891.86
2018-05-02T03:42:12.238Z,100897.80
2018-05-02T03:43:16.409Z,100894.86
2018-05-02T03:44:21.029Z,100892.77
2018-05-02T03:45:25.226Z,100888.55
2018-05-02T03:46:29.402Z,100891.92
2018-05-02T03:47:33.575Z,100894.03
2018-05-02T03:48:37.736Z,100889.78
2018-05-02T03:49:42.848Z,100887.68
2018-05-02T03:50:47.029Z,100891.09
2018-05-02T03:51:51.206Z,100894.47
2018-05-02T03:52:55.394Z,100895.75
2018-05-02T03:54:00.385Z,100895.38
2018-05-02T03:55:04.577Z,100891.56
2018-05-02T03:56:08.739Z,100896.66
2018-05-02T03:57:14.112Z,100895.84
2018-05-02T03:58:18.269Z,100891.61
2018-05-02T04:01:29.953Z,100893.72
2018-05-02T04:02:52.147Z,100887.80
2018-05-02T04:04:14.537Z,100893.33
2018-05-02T04:07:15.034Z,100890.78
2018-05-02T04:08:19.952Z,100892.90
2018-05-02T04:09:24.876Z,100889.95
2018-05-02T04:10:29.805Z,100895.84
2018-05-02T04:11:34.762Z,100897.54
2018-05-02T04:12:38.953Z,100896.33
2018-05-02T04:13:44.726Z,100895.88
2018-05-02T04:14:48.880Z,100898.48
2018-05-02T04:15:53.124Z,100892.13
2018-05-02T04:16:57.531Z,100895.95
2018-05-02T04:18:02.452Z,100906.56
2018-05-02T04:19:07.395Z,100902.75
2018-05-02T04:20:11.555Z,100900.65
2018-05-02T04:21:15.709Z,100898.50
2018-05-02T04:22:20.702Z,100901.47
2018-05-02T04:23:24.860Z,100903.58
2018-05-02T04:24:29.029Z,100910.77
2018-05-02T04:25:33.194Z,100900.98
2018-05-02T04:26:37.355Z,100906.06
2018-05-02T04:27:43.087Z,100906.02
2018-05-02T04:28:47.256Z,100908.53
2018-05-02T04:29:51.422Z,100913.14
2018-05-02T04:30:55.590Z,100913.52
2018-05-02T04:31:59.753Z,100911.78
2018-05-02T04:33:05.080Z,100908.77
2018-05-02T04:34:10.018Z,100916.34
2018-05-02T04:35:14.955Z,100915.44
2018-05-02T04:36:19.881Z,100911.53
2018-05-02T04:37:24.810Z,100917.84
2018-05-02T04:38:29.924Z,100909.74
2018-05-02T04:39:34.853Z,100915.22
2018-05-02T04:40:39.789Z,100916.48
2018-05-02T04:41:44.716Z,100921.14
2018-05-02T04:42:49.641Z,100918.64
2018-05-02T04:43:54.687Z,100926.23
2018-05-02T04:44:58.895Z,100922.40
2018-05-02T04:46:03.085Z,100915.21
2018-05-02T04:47:07.308Z,100917.76
2018-05-02T04:48:12.246Z,100919.86
2018-05-02T04:49:16.428Z,100919.84
2018-05-02T04:50:20.689Z,100922.45
2018-05-02T04:51:24.918Z,100919.86
2018-05-02T04:52:29.090Z,100924.94
2018-05-02T04:53:33.245Z,100925.77
2018-05-02T04:54:37.411Z,100927.92
2018-05-02T04:55:41.580Z,100920.27
2018-05-02T04:56:46.222Z,100924.86
2018-05-02T04:57:51.144Z,100922.31
2018-05-02T04:58:56.072Z,100926.13
2018-05-02T05:00:00.231Z,100924.41
2018-05-02T05:01:04.397Z,100927.39
2018-05-02T05:02:09.358Z,100925.72
2018-05-02T05:03:13.516Z,100930.39
2018-05-02T05:04:17.672Z,100926.13
2018-05-02T05:05:21.842Z,100927.01
2018-05-02T05:06:26.009Z,100921.92
2018-05-02T05:07:30.201Z,100924.86
2018-05-02T05:08:34.376Z,100931.30
2018-05-02T05:09:39.301Z,100932.51
2018-05-02T05:10:43.480Z,100929.11
2018-05-02T05:11:47.663Z,100933.83
2018-05-02T05:12:51.837Z,100931.59
2018-05-02T05:13:56.764Z,100934.52
2018-05-02T05:15:01.688Z,100934.47
2018-05-02T05:16:06.612Z,100936.57
2018-05-02T05:17:11.595Z,100939.91
2018-05-02T05:18:15.812Z,100939.85
2018-05-02T05:19:19.973Z,100941.64
2018-05-02T05:20:24.897Z,100945.47
2018-05-02T05:21:29.835Z,100940.76
2018-05-02T05:22:33.988Z,100944.56
2018-05-02T05:23:38.172Z,100947.49
2018-05-02T05:24:42.341Z,100941.49
2018-05-02T05:25:46.574Z,100944.91
2018-05-02T05:26:50.736Z,100949.13
2018-05-02T05:27:54.926Z,100946.55
2018-05-02T05:28:59.085Z,100952.14
2018-05-02T05:30:03.264Z,100951.31
2018-05-02T05:31:07.812Z,100955.50
2018-05-02T05:32:12.755Z,100957.59
2018-05-02T05:33:17.700Z,100956.23
2018-05-02T05:34:21.860Z,100952.77
2018-05-02T05:35:26.032Z,100950.17
2018-05-02T05:36:30.265Z,100949.76
2018-05-02T05:37:34.416Z,100945.44
2018-05-02T05:38:39.359Z,100948.72
2018-05-02T05:39:43.524Z,100946.11
2018-05-02T05:40:47.685Z,100946.46
2018-05-02T05:41:51.908Z,100945.97
2018-05-02T05:42:56.062Z,100947.53
2018-05-02T05:44:00.224Z,100934.70
2018-05-02T05:45:04.394Z,100944.49
2018-05-02T05:46:08.565Z,100943.15
2018-05-02T05:47:12.777Z,100944.09
2018-05-02T05:48:16.946Z,100946.70
2018-05-02T05:49:21.138Z,100943.29
2018-05-02T05:50:26.070Z,100944.60
2018-05-02T05:51:30.996Z,100954.22
2018-05-02T05:52:36.041Z,100949.47
2018-05-02T05:53:40.973Z,100947.01
2018-05-02T05:54:45.129Z,100957.80
2018-05-02T05:55:49.299Z,100958.66
2018-05-02T05:56:53.458Z,100958.61
2018-05-02T05:57:57.873Z,100956.53
2018-05-02T05:59:02.037Z,100962.92
2018-05-02T06:00:06.202Z,100959.80
2018-05-02T06:01:11.223Z,100957.34
2018-05-02T06:02:15.369Z,100955.73
2018-05-02T06:03:19.576Z,100957.39
2018-05-02T06:04:24.773Z,100958.16
2018-05-02T06:05:30.474Z,100961.03
2018-05-02T06:06:34.636Z,100964.00
2018-05-02T06:07:38.793Z,100962.59
2018-05-02T06:08:42.961Z,100959.52
2018-05-02T06:09:47.131Z,100956.03
2018-05-02T06:10:51.500Z,100950.34
2018-05-02T06:11:55.692Z,100955.42
2018-05-02T06:12:59.937Z,100957.90
2018-05-02T06:14:04.089Z,100953.16
2018-05-02T06:15:08.254Z,100953.48
2018-05-02T06:16:13.220Z,100955.53
2018-05-02T06:17:17.378Z,100962.63
2018-05-02T06:18:22.301Z,100956.15
2018-05-02T06:19:27.225Z,100956.02
2018-05-02T06:20:32.162Z,100959.28
2018-05-02T06:21:37.295Z,100958.94
2018-05-02T06:22:42.216Z,100962.23
2018-05-02T06:23:46.417Z,100959.92
2018-05-02T06:24:50.593Z,100958.47
2018-05-02T06:25:54.752Z,100953.59
2018-05-02T06:26:59.706Z,100961.56
2018-05-02T06:28:03.905Z,100960.12
2018-05-02T06:29:08.083Z,100958.45
2018-05-02T06:30:12.252Z,100956.30
2018-05-02T06:31:16.408Z,100958.13
2018-05-02T06:32:20.595Z,100955.16
2018-05-02T06:33:24.781Z,100952.53
2018-05-02T06:34:28.932Z,100953.27
2018-05-02T06:35:33.107Z,100949.31
2018-05-02T06:36:37.291Z,100947.07
2018-05-02T06:37:41.501Z,100952.59
2018-05-02T06:38:46.841Z,100956.72
2018-05-02T06:39:51.023Z,100958.32
2018-05-02T06:40:55.985Z,100950.94
2018-05-02T06:42:00.157Z,100959.02
2018-05-02T06:43:05.208Z,100954.86
2018-05-02T06:44:09.619Z,100952.20
2018-05-02T06:45:14.549Z,100945.68
2018-05-02T06:46:19.582Z,100954.06
2018-05-02T06:47:23.754Z,100944.05
2018-05-02T06:48:27.909Z,100947.88
2018-05-02T06:49:32.237Z,100948.64
2018-05-02T06:50:36.421Z,100949.75
2018-05-02T06:51:40.588Z,100945.45
2018-05-02T06:52:44.753Z,100951.83
2018-05-02T06:53:48.909Z,100950.78
2018-05-02T06:54:53.113Z,100948.03
2018-05-02T06:55:57.297Z,100948.75
2018-05-02T06:57:01.462Z,100944.94
2018-05-02T06:58:06.448Z,100940.15
2018-05-02T06:59:10.626Z,100945.23
2018-05-02T07:00:14.801Z,100943.84
2018-05-02T07:01:18.958Z,100947.47
2018-05-02T07:02:23.173Z,100944.91
2018-05-02T07:03:27.461Z,100944.01
2018-05-02T07:04:31.634Z,100936.72
2018-05-02T07:05:35.805Z,100942.89
2018-05-02T07:06:39.974Z,100943.34
2018-05-02T07:07:44.906Z,100941.31
2018-05-02T07:08:49.918Z,100940.83
2018-05-02T07:09:54.254Z,100943.20
2018-05-02T07:10:59.198Z,100941.06
2018-05-02T07:12:03.375Z,100935.17
2018-05-02T07:13:08.314Z,100936.95
2018-05-02T07:14:13.248Z,100938.05
2018-05-02T07:15:18.285Z,100929.44
2018-05-02T07:16:22.490Z,100938.73
2018-05-02T07:17:27.442Z,100936.39
2018-05-02T07:18:31.610Z,100931.69
2018-05-02T07:19:35.781Z,100937.41
2018-05-02T07:20:39.994Z,100930.51
2018-05-02T07:21:44.173Z,100940.34
2018-05-02T07:22:48.370Z,100943.98
2018-05-02T07:23:53.305Z,100935.27
2018-05-02T07:24:57.476Z,100934.20
2018-05-02T07:26:01.648Z,100938.27
2018-05-02T07:27:05.861Z,100939.88
2018-05-02T07:28:10.030Z,100939.34
2018-05-02T07:29:14.965Z,100931.97
2018-05-02T07:30:19.953Z,100935.11
2018-05-02T07:31:24.125Z,100932.28
2018-05-02T07:32:28.387Z,100937.47
2018-05-02T07:33:33.260Z,100930.86
2018-05-02T07:34:37.438Z,100930.91
2018-05-02T07:35:42.479Z,100925.55
2018-05-02T07:36:47.429Z,100923.22
2018-05-02T07:37:51.622Z,100927.44
2018-05-02T07:38:55.795Z,100923.55
2018-05-02T07:39:59.973Z,100923.09
2018-05-02T07:41:04.158Z,100925.41
2018-05-02T07:42:08.361Z,100921.28
2018-05-02T07:43:12.553Z,100917.80
2018-05-02T07:44:17.615Z,100919.83
2018-05-02T07:45:21.806Z,100917.56
2018-05-02T07:46:26.776Z,100921.94
2018-05-02T07:47:30.955Z,100916.27
2018-05-02T07:48:35.149Z,100919.59
2018-05-02T07:49:40.123Z,100924.97
2018-05-02T07:50:44.295Z,100918.68
2018-05-02T07:51:48.506Z,100921.87
2018-05-02T07:52:53.450Z,100923.38
2018-05-02T07:53:57.636Z,100922.24
2018-05-02T07:55:02.617Z,100921.86
2018-05-02T07:56:06.777Z,100913.52
2018-05-02T07:57:11.790Z,100915.36
2018-05-02T07:58:16.032Z,100914.73
2018-05-02T07:59:20.639Z,100918.85
2018-05-02T08:00:25.638Z,100917.83
2018-05-02T08:01:29.787Z,100923.34
2018-05-02T08:02:33.957Z,100918.83
2018-05-02T08:03:38.130Z,100921.19
2018-05-02T08:04:42.405Z,100923.03
2018-05-02T08:05:47.375Z,100925.15
2018-05-02T08:06:51.592Z,100927.66
2018-05-02T08:07:55.843Z,100924.91
2018-05-02T08:09:00.900Z,100922.73
2018-05-02T08:10:05.067Z,100927.61
2018-05-02T08:11:09.370Z,100931.17
2018-05-02T08:12:14.261Z,100931.75
2018-05-02T08:13:18.425Z,100935.59
2018-05-02T08:14:22.593Z,100924.20
2018-05-02T08:15:26.761Z,100922.80
2018-05-02T08:16:31.916Z,100913.14
2018-05-02T08:17:36.095Z,100922.22
2018-05-02T08:18:40.270Z,100924.52
2018-05-02T08:19:44.438Z,100921.02
2018-05-02T08:20:48.606Z,100921.70
2018-05-02T08:21:52.870Z,100924.41
2018-05-02T08:22:57.045Z,100924.47
2018-05-02T08:24:01.255Z,100920.88
2018-05-02T08:25:05.427Z,100926.78
2018-05-02T08:26:09.606Z,100928.79
2018-05-02T08:27:13.764Z,100920.01
2018-05-02T08:28:17.937Z,100913.08
2018-05-02T08:29:22.326Z,100921.13
2018-05-02T08:30:27.260Z,100920.05
2018-05-02T08:31:32.199Z,100922.16
2018-05-02T08:32:36.380Z,100909.16
2018-05-02T08:33:41.330Z,100909.89
2018-05-02T08:34:45.686Z,100914.55
2018-05-02T08:35:49.872Z,100907.67
2018-05-02T08:36:54.041Z,100910.88
2018-05-02T08:37:58.992Z,100914.50
2018-05-02T08:39:03.202Z,100904.70
2018-05-02T08:40:07.445Z,100911.16
2018-05-02T08:41:11.656Z,100912.53
2018-05-02T08:42:15.825Z,100904.95
2018-05-02T08:43:20.752Z,100902.58
2018-05-02T08:44:25.946Z,100894.27
2018-05-02T08:45:30.110Z,100905.92
2018-05-02T08:46:34.504Z,100894.73
2018-05-02T08:47:39.446Z,100900.23
2018-05-02T08:48:43.621Z,100904.67
2018-05-02T08:49:47.798Z,100897.87
2018-05-02T08:50:51.974Z,100890.80
2018-05-02T08:51:57.040Z,100895.57
2018-05-02T08:53:01.205Z,100903.28
2018-05-02T08:54:06.145Z,100897.92
2018-05-02T08:55:10.357Z,100893.31
2018-05-02T08:56:14.530Z,100890.20
2018-05-02T08:57:18.795Z,100893.38
2018-05-02T08:58:23.814Z,100890.92
2018-05-02T08:59:27.977Z,100883.34
2018-05-02T09:00:32.159Z,100884.70
2018-05-02T09:01:36.323Z,100890.84
2018-05-02T09:02:41.781Z,100894.14
2018-05-02T09:03:45.995Z,100888.75
2018-05-02T09:04:50.174Z,100886.27
2018-05-02T09:05:55.109Z,100885.70
2018-05-02T09:07:00.037Z,100892.88
2018-05-02T09:08:05.015Z,100889.48
2018-05-02T09:09:09.176Z,100887.16
2018-05-02T09:10:14.119Z,100886.33
2018-05-02T09:11:18.312Z,100888.47
2018-05-02T09:12:23.258Z,100881.73
2018-05-02T09:13:27.427Z,100885.63
2018-05-02T09:14:31.605Z,100881.55
2018-05-02T09:15:35.850Z,100889.13
2018-05-02T09:16:40.050Z,100887.54
2018-05-02T09:17:44.230Z,100881.79
2018-05-02T09:18:48.397Z,100883.95
2018-05-02T09:19:53.356Z,100885.80
2018-05-02T09:20:57.543Z,100886.73
2018-05-02T09:22:02.486Z,100885.23
2018-05-02T09:23:06.688Z,100880.80
2018-05-02T09:24:10.866Z,100884.48
2018-05-02T09:25:15.035Z,100885.86
2018-05-02T09:26:19.213Z,100885.31
2018-05-02T09:27:24.212Z,100883.37
2018-05-02T09:28:28.396Z,100889.91
2018-05-02T09:29:32.566Z,100884.45
2018-05-02T09:30:37.498Z,100881.38
2018-05-02T09:31:42.430Z,100877.53
2018-05-02T09:32:46.630Z,100899.08
2018-05-02T09:33:51.573Z,100879.95
2018-05-02T09:34:55.761Z,100869.36
2018-05-02T09:36:00.760Z,100868.07
2018-05-02T09:37:04.940Z,100869.48
2018-05-02T09:38:09.106Z,100871.80
2018-05-02T09:39:14.042Z,100874.86
2018-05-02T09:40:19.129Z,100877.53
2018-05-02T09:41:24.023Z,100875.05
2018-05-02T09:42:28.322Z,100874.94
2018-05-02T09:43:32.485Z,100862.77
2018-05-02T09:44:36.708Z,100859.60
2018-05-02T09:45:40.889Z,100859.98
2018-05-02T09:46:45.052Z,100857.70
2018-05-02T09:47:50.133Z,100858.72
2018-05-02T09:48:54.298Z,100859.47
2018-05-02T09:49:58.480Z,100863.63
2018-05-02T09:51:02.650Z,100851.74
2018-05-02T09:52:06.835Z,100846.59
2018-05-02T09:53:11.054Z,100845.36
2018-05-02T09:54:15.216Z,100849.11
2018-05-02T09:55:19.563Z,100844.00
2018-05-02T09:56:23.741Z,100846.50
2018-05-02T09:57:27.904Z,100848.92
2018-05-02T09:58:32.097Z,100841.88
2018-05-02T09:59:36.320Z,100845.94
2018-05-02T10:00:40.497Z,100843.84
2018-05-02T10:01:45.437Z,100839.27
2018-05-02T10:02:50.375Z,100842.58
2018-05-02T10:03:54.542Z,100833.51
2018-05-02T10:04:58.732Z,100838.07
2018-05-02T10:06:02.917Z,100836.20
2018-05-02T10:07:07.169Z,100841.75
2018-05-02T10:08:11.344Z,100841.91
2018-05-02T10:09:15.527Z,100838.66
2018-05-02T10:10:20.452Z,100843.91
2018-05-02T10:11:25.444Z,100839.43
2018-05-02T10:12:29.842Z,100840.76
2018-05-02T10:13:34.712Z,100834.13
2018-05-02T10:14:39.844Z,100835.44
2018-05-02T10:15:44.768Z,100832.89
2018-05-02T10:16:49.702Z,100832.42
2018-05-02T10:17:54.632Z,100844.65
2018-05-02T10:18:59.655Z,100841.53
2018-05-02T10:20:04.788Z,100838.28
2018-05-02T10:21:09.719Z,100833.35
2018-05-02T10:22:14.672Z,100834.53
2018-05-02T10:23:18.855Z,100836.09
2018-05-02T10:24:23.794Z,100834.55
2018-05-02T10:25:29.869Z,100835.25
2018-05-02T10:26:34.034Z,100826.46
2018-05-02T10:27:38.672Z,100829.41
2018-05-02T10:28:43.605Z,100832.33
2018-05-02T10:29:48.541Z,100835.48
2018-05-02T10:30:52.709Z,100830.15
2018-05-02T10:31:56.961Z,100836.95
2018-05-02T10:33:02.014Z,100834.92
2018-05-02T10:34:06.181Z,100832.30
2018-05-02T10:35:11.109Z,100830.07
2018-05-02T10:36:16.043Z,100833.95
2018-05-02T10:37:20.983Z,100822.05
2018-05-02T10:38:26.205Z,100826.66
2018-05-02T10:39:31.242Z,100824.04
2018-05-02T10:40:36.164Z,100827.61
2018-05-02T10:41:41.111Z,100825.75
2018-05-02T10:42:45.273Z,100822.14
2018-05-02T10:43:49.493Z,100816.34
2018-05-02T10:44:55.161Z,100822.70
2018-05-02T10:46:00.102Z,100820.52
2018-05-02T10:47:04.266Z,100823.20
2018-05-02T10:48:08.435Z,100817.39
2018-05-02T10:49:12.647Z,100819.33
2018-05-02T10:50:16.805Z,100814.23
2018-05-02T10:51:22.877Z,100820.70
2018-05-02T10:52:27.814Z,100817.97
2018-05-02T10:53:32.737Z,100816.91
2018-05-02T10:54:37.671Z,100812.70
2018-05-02T10:55:42.607Z,100814.59
2018-05-02T10:56:46.820Z,100810.70
2018-05-02T10:57:50.985Z,100812.17
2018-05-02T10:58:55.148Z,100815.60
2018-05-02T10:59:59.313Z,100807.58
2018-05-02T11:01:05.094Z,100818.70
2018-05-02T11:02:09.286Z,100819.45
2018-05-02T11:03:14.208Z,100823.27
2018-05-02T11:04:19.162Z,100817.34
2018-05-02T11:05:23.316Z,100812.95
2018-05-02T11:06:27.490Z,100809.18
2018-05-02T11:07:31.653Z,100811.20
2018-05-02T11:08:35.836Z,100806.44
2018-05-02T11:09:40.026Z,100822.58
2018-05-02T11:10:44.180Z,100811.62
2018-05-02T11:11:49.858Z,100815.40
2018-05-02T11:12:54.020Z,100819.49
2018-05-02T11:13:58.229Z,100812.39
2018-05-02T11:15:02.428Z,100812.42
2018-05-02T11:16:06.992Z,100808.92
2018-05-02T11:17:11.925Z,100815.98
2018-05-02T11:18:16.855Z,100816.87
2018-05-02T11:19:21.798Z,100808.67
2018-05-02T11:20:25.961Z,100819.66
2018-05-02T11:21:30.502Z,100817.61
2018-05-02T11:22:35.436Z,100811.49
2018-05-02T11:23:39.620Z,100815.83
2018-05-02T11:24:43.784Z,100821.07
2018-05-02T11:25:47.984Z,100810.06
2018-05-02T11:26:52.383Z,100818.70
2018-05-02T11:27:57.313Z,100811.53
2018-05-02T11:29:02.254Z,100815.02
2018-05-02T11:30:06.418Z,100808.05
2018-05-02T11:31:10.650Z,100805.67
2018-05-02T11:32:15.610Z,100809.78
2018-05-02T11:33:19.801Z,100813.66
2018-05-02T11:34:24.867Z,100798.05
2018-05-02T11:35:29.040Z,100805.70
2018-05-02T11:36:33.297Z,100803.52
2018-05-02T11:37:37.463Z,100806.02
2018-05-02T11:38:42.392Z,100792.56
2018-05-02T11:39:46.606Z,100796.77
2018-05-02T11:40:50.769Z,100796.91
2018-05-02T11:41:55.007Z,100792.95
2018-05-02T11:42:59.933Z,100788.91
2018-05-02T11:44:04.882Z,100785.43
2018-05-02T11:45:09.109Z,100786.84
2018-05-02T11:46:13.298Z,100781.78
2018-05-02T11:47:17.601Z,100783.95
2018-05-02T11:48:22.534Z,100785.00
2018-05-02T11:49:27.456Z,100790.34
2018-05-02T11:50:32.392Z,100785.71
2018-05-02T11:51:37.328Z,100787.64
2018-05-02T11:52:41.534Z,100781.05
2018-05-02T11:53:46.462Z,100786.89
2018-05-02T11:54:50.629Z,100782.19
2018-05-02T11:55:54.796Z,100785.02
2018-05-02T11:56:58.958Z,100782.33
2018-05-02T11:58:04.714Z,100780.83
2018-05-02T11:59:08.882Z,100771.48
2018-05-02T12:00:13.042Z,100775.81
2018-05-02T12:01:17.986Z,100776.23
2018-05-02T12:02:22.924Z,100782.17
2018-05-02T12:03:27.164Z,100776.95
2018-05-02T12:04:31.338Z,100773.13
2018-05-02T12:05:35.500Z,100773.84
2018-05-02T12:06:39.667Z,100776.05
2018-05-02T12:07:43.820Z,100768.14
2018-05-02T12:08:48.054Z,100763.81
2018-05-02T12:09:52.209Z,100777.30
2018-05-02T12:10:56.369Z,100774.72
2018-05-02T12:12:00.534Z,100777.00
2018-05-02T12:13:04.712Z,100774.70
2018-05-02T12:14:08.909Z,100777.56
2018-05-02T12:15:13.833Z,100768.56
2018-05-02T12:16:18.760Z,100761.44
2018-05-02T12:17:23.713Z,100758.50
2018-05-02T12:18:27.877Z,100759.37
2018-05-02T12:19:33.544Z,100756.39
2018-05-02T12:20:38.694Z,100758.87